Time;durP1;ratioP1;P1;durP2;ratioP2;P2;SDS_P1;SDS_P2;PMS_P1;PMS_P2;Temp;Humidity;BMP_temperature;BMP_pressure;BME280_temperature;BME280_humidity;BME280_pressure;Samples;Min_cycle;Max_cycle;Signal;HPM_P1;HPM_P2
2022/10/15 00:03:17;;;;;;;6.90;4.95;;;16.90;76.00;;;;;;10362400;28;20113;-57
2022/10/15 00:08:18;;;;;;;6.35;4.82;;;16.90;76.00;;;;;;10387657;28;20101;-57
2022/10/15 00:13:18;;;;;;;5.80;4.72;;;16.90;76.00;;;;;;10368777;28;20500;-57
2022/10/15 00:18:19;;;;;;;6.15;4.65;;;16.90;75.90;;;;;;10365242;28;20460;-56
2022/10/15 00:23:20;;;;;;;6.88;4.93;;;16.80;75.80;;;;;;10366126;28;20113;-55
2022/10/15 00:28:21;;;;;;;7.00;4.00;;;16.80;75.70;;;;;;10365007;28;20543;-57
2022/10/15 00:33:22;;;;;;;6.13;4.68;;;16.80;75.70;;;;;;10364590;28;20097;-56
2022/10/15 00:38:22;;;;;;;5.43;4.20;;;16.80;75.70;;;;;;10363672;28;20508;-57
2022/10/15 00:43:45;;;;;;;5.05;4.50;;;16.80;75.70;;;;;;10347585;28;20137;-55
2022/10/15 00:48:49;;;;;;;5.03;4.13;;;16.80;75.60;;;;;;10364589;28;20531;-55
2022/10/15 00:53:49;;;;;;;4.30;3.55;;;16.80;75.60;;;;;;10363590;28;20375;-58
2022/10/15 00:58:52;;;;;;;5.80;4.05;;;16.80;75.50;;;;;;10373309;28;20049;-56
2022/10/15 01:03:55;;;;;;;5.35;4.47;;;16.80;75.60;;;;;;10364378;28;20525;-56
2022/10/15 01:08:56;;;;;;;5.72;4.05;;;16.80;75.50;;;;;;10366347;28;20024;-56
2022/10/15 01:14:07;;;;;;;6.05;4.35;;;16.80;75.40;;;;;;10373544;28;20100;-57
2022/10/15 01:19:42;;;;;;;5.80;4.72;;;16.80;75.40;;;;;;10355944;28;20026;-57
2022/10/15 01:25:02;;;;;;;5.32;4.45;;;16.80;75.30;;;;;;10363934;28;20046;-57
2022/10/15 01:30:18;;;;;;;6.90;4.45;;;16.80;75.40;;;;;;10344192;28;20026;-57
2022/10/15 01:35:48;;;;;;;5.72;4.78;;;16.80;75.30;;;;;;10363488;28;20023;-56
2022/10/15 01:41:02;;;;;;;4.93;3.50;;;16.80;75.30;;;;;;10362324;28;20046;-57
2022/10/15 01:46:10;;;;;;;4.70;3.85;;;16.70;75.20;;;;;;10361914;28;20108;-57
2022/10/15 01:51:14;;;;;;;5.13;4.30;;;16.70;75.30;;;;;;10362427;28;20481;-57
2022/10/15 01:56:22;;;;;;;5.82;4.18;;;16.70;75.20;;;;;;10367583;28;20032;-57
2022/10/15 02:01:23;;;;;;;5.28;3.88;;;16.70;75.20;;;;;;10369752;28;20030;-56
2022/10/15 02:06:40;;;;;;;4.53;3.67;;;16.70;75.20;;;;;;10362631;28;20072;-57
2022/10/15 02:12:04;;;;;;;5.15;4.20;;;16.70;75.20;;;;;;10371107;28;20026;-57
2022/10/15 02:17:09;;;;;;;5.78;4.22;;;16.70;75.20;;;;;;10350763;28;20408;-57
2022/10/15 02:22:33;;;;;;;5.10;4.22;;;16.80;75.30;;;;;;10361999;28;20038;-56
2022/10/15 02:27:35;;;;;;;4.43;3.40;;;16.70;75.10;;;;;;10362906;28;20029;-56
2022/10/15 02:32:39;;;;;;;5.28;4.20;;;16.70;75.30;;;;;;10362525;28;20056;-57
2022/10/15 02:37:46;;;;;;;5.38;3.90;;;16.70;75.20;;;;;;10361648;28;20696;-56
2022/10/15 02:42:50;;;;;;;4.65;3.70;;;16.70;75.20;;;;;;10381142;28;20062;-57
2022/10/15 02:47:51;;;;;;;4.72;3.78;;;16.70;75.10;;;;;;10367723;28;20061;-56
2022/10/15 02:52:52;;;;;;;5.47;4.18;;;16.70;75.10;;;;;;10384410;28;20852;-57
2022/10/15 02:57:52;;;;;;;4.75;3.83;;;16.70;75.20;;;;;;10351609;28;20041;-57
2022/10/15 03:02:53;;;;;;;5.60;4.40;;;16.70;75.10;;;;;;10368695;28;20517;-57
2022/10/15 03:07:54;;;;;;;5.25;3.65;;;16.70;75.10;;;;;;10372761;28;20056;-56
2022/10/15 03:12:54;;;;;;;5.13;3.97;;;16.70;75.10;;;;;;10374458;28;20072;-57
2022/10/15 03:17:55;;;;;;;5.20;4.13;;;16.70;75.00;;;;;;10368457;28;20080;-57
2022/10/15 03:22:56;;;;;;;4.80;4.00;;;16.70;75.10;;;;;;10367884;28;20112;-55
2022/10/15 03:27:56;;;;;;;5.10;4.00;;;16.70;75.00;;;;;;10366636;28;20029;-56
2022/10/15 03:32:57;;;;;;;4.70;3.65;;;16.70;75.00;;;;;;10367908;28;20414;-56
2022/10/15 03:37:58;;;;;;;5.35;4.15;;;16.70;75.00;;;;;;10367549;28;20485;-57
2022/10/15 03:42:58;;;;;;;5.10;3.70;;;16.60;74.90;;;;;;10366881;28;20074;-56
2022/10/15 03:47:59;;;;;;;5.38;4.03;;;16.60;74.90;;;;;;10367328;28;20018;-57
2022/10/15 03:53:03;;;;;;;4.00;3.25;;;16.60;74.90;;;;;;10368055;28;20472;-57
2022/10/15 03:58:04;;;;;;;4.32;3.85;;;16.70;75.00;;;;;;10369083;28;20025;-56
2022/10/15 04:03:05;;;;;;;5.10;3.75;;;16.60;74.90;;;;;;10367215;28;20033;-57
2022/10/15 04:08:05;;;;;;;7.15;4.85;;;16.60;74.90;;;;;;10373814;28;20060;-56
2022/10/15 04:13:06;;;;;;;5.53;3.95;;;16.60;74.90;;;;;;10371933;28;20053;-57
2022/10/15 04:18:07;;;;;;;5.25;3.47;;;16.60;75.00;;;;;;10368517;28;20057;-57
2022/10/15 04:23:09;;;;;;;6.18;4.15;;;16.60;74.90;;;;;;10366393;28;20034;-57
2022/10/15 04:28:09;;;;;;;6.40;4.70;;;16.60;75.00;;;;;;10396372;28;20018;-57
2022/10/15 04:33:10;;;;;;;5.32;4.30;;;16.60;75.00;;;;;;10366098;28;20032;-57
2022/10/15 04:38:10;;;;;;;6.20;4.45;;;16.60;74.80;;;;;;10366398;28;20097;-57
2022/10/15 04:43:11;;;;;;;5.75;3.90;;;16.60;74.80;;;;;;10366875;28;20037;-57
2022/10/15 04:48:12;;;;;;;5.28;3.97;;;16.60;74.80;;;;;;10363374;28;20097;-57
2022/10/15 04:53:12;;;;;;;5.00;3.58;;;16.60;75.00;;;;;;10365414;28;20105;-56
2022/10/15 04:58:13;;;;;;;6.63;4.35;;;16.60;75.00;;;;;;10362036;28;20054;-57
2022/10/15 05:03:14;;;;;;;5.85;4.40;;;16.60;74.90;;;;;;10357733;28;20038;-58
2022/10/15 05:08:14;;;;;;;20.85;19.02;;;16.60;74.90;;;;;;10362826;28;20056;-57
2022/10/15 05:13:15;;;;;;;17.77;16.27;;;16.70;75.70;;;;;;10372876;28;20112;-57
2022/10/15 05:18:16;;;;;;;17.95;13.20;;;16.70;75.90;;;;;;10331796;28;20068;-56
2022/10/15 05:23:16;;;;;;;16.48;13.13;;;16.80;75.80;;;;;;10361860;28;20030;-58
2022/10/15 05:28:17;;;;;;;19.40;14.25;;;16.80;76.30;;;;;;10352640;28;20252;-56
2022/10/15 05:33:18;;;;;;;20.42;14.80;;;16.90;77.10;;;;;;10361164;28;20053;-58
2022/10/15 05:38:18;;;;;;;17.13;14.43;;;16.90;76.70;;;;;;10352948;28;20018;-57
2022/10/15 05:43:19;;;;;;;18.80;14.52;;;16.90;76.80;;;;;;10360919;28;20517;-56
2022/10/15 05:48:19;;;;;;;18.65;14.55;;;16.90;76.60;;;;;;10359373;28;20053;-55
2022/10/15 05:53:20;;;;;;;17.52;14.60;;;16.90;76.50;;;;;;10367896;28;20090;-56
2022/10/15 05:58:21;;;;;;;14.43;12.93;;;16.80;76.80;;;;;;10357159;28;20557;-57
2022/10/15 06:03:22;;;;;;;16.33;14.32;;;16.80;76.70;;;;;;10372575;28;20049;-56
2022/10/15 06:08:23;;;;;;;35.03;15.65;;;16.80;77.20;;;;;;10359069;28;20389;-57
2022/10/15 06:13:23;;;;;;;36.17;15.88;;;16.80;77.50;;;;;;10356956;28;20045;-56
2022/10/15 06:18:24;;;;;;;33.17;15.02;;;16.80;77.30;;;;;;10379193;28;20061;-57
2022/10/15 06:23:25;;;;;;;22.30;15.55;;;16.80;77.50;;;;;;10366032;28;20058;-56
2022/10/15 06:28:25;;;;;;;29.25;15.65;;;16.80;77.60;;;;;;10362400;28;20026;-58
2022/10/15 06:33:27;;;;;;;23.95;14.88;;;16.80;77.50;;;;;;10364405;28;20057;-54
2022/10/15 06:38:28;;;;;;;29.23;13.52;;;16.80;77.60;;;;;;10368898;28;20073;-58
2022/10/15 06:43:28;;;;;;;21.58;13.68;;;16.70;77.60;;;;;;10367263;28;20543;-56
2022/10/15 06:48:29;;;;;;;15.07;12.93;;;16.70;77.50;;;;;;10367039;28;20112;-55
2022/10/15 06:53:30;;;;;;;22.92;13.50;;;16.80;77.40;;;;;;10367603;28;20085;-55
2022/10/15 06:58:31;;;;;;;22.65;12.98;;;16.90;77.10;;;;;;10376615;28;20033;-57
2022/10/15 07:03:32;;;;;;;20.85;12.98;;;16.80;77.00;;;;;;10368065;28;20118;-56
2022/10/15 07:08:33;;;;;;;17.55;12.30;;;16.80;77.00;;;;;;10367579;28;20045;-54
2022/10/15 07:13:34;;;;;;;27.05;13.25;;;16.90;76.90;;;;;;10376212;28;20034;-55
2022/10/15 07:18:35;;;;;;;23.15;11.35;;;16.90;77.00;;;;;;10367100;28;20021;-58
2022/10/15 07:23:36;;;;;;;19.67;11.18;;;16.90;76.90;;;;;;10367022;28;20527;-58
2022/10/15 07:28:37;;;;;;;17.15;10.90;;;16.90;77.10;;;;;;10381140;28;20029;-55
2022/10/15 07:33:38;;;;;;;13.93;9.23;;;16.80;77.10;;;;;;10367222;28;20025;-56
2022/10/15 07:38:39;;;;;;;14.32;11.02;;;16.90;77.20;;;;;;10364778;28;20026;-56
2022/10/15 07:43:40;;;;;;;17.08;9.82;;;17.00;76.70;;;;;;10363331;28;20050;-54
2022/10/15 07:48:40;;;;;;;15.50;9.50;;;17.00;76.60;;;;;;10361949;28;20020;-56
2022/10/15 07:53:42;;;;;;;12.93;9.30;;;17.00;76.60;;;;;;10361447;28;20109;-60
2022/10/15 07:58:50;;;;;;;15.32;9.10;;;17.00;76.80;;;;;;10364627;28;20053;-56
2022/10/15 08:03:51;;;;;;;11.65;9.02;;;17.00;76.80;;;;;;10365880;28;20497;-57
2022/10/15 08:08:51;;;;;;;17.73;8.48;;;17.00;77.10;;;;;;10389958;28;20101;-57
2022/10/15 08:13:53;;;;;;;13.52;9.43;;;17.00;76.80;;;;;;10364292;28;20049;-55
2022/10/15 08:18:54;;;;;;;16.00;7.43;;;17.00;76.90;;;;;;10363343;28;20582;-58
2022/10/15 08:23:54;;;;;;;13.68;7.53;;;17.00;77.00;;;;;;10364979;28;20125;-56
2022/10/15 08:28:55;;;;;;;14.05;8.02;;;17.00;76.70;;;;;;10362397;28;20414;-56
2022/10/15 08:34:00;;;;;;;13.52;7.47;;;17.10;77.00;;;;;;10363771;28;20461;-57
2022/10/15 08:39:00;;;;;;;17.45;8.10;;;17.10;76.70;;;;;;10361522;28;20134;-57
2022/10/15 08:44:01;;;;;;;12.93;7.90;;;17.00;77.20;;;;;;10362937;28;20133;-54
2022/10/15 08:49:03;;;;;;;12.02;7.82;;;16.90;77.20;;;;;;10361221;28;20515;-58
2022/10/15 08:54:05;;;;;;;13.95;8.75;;;17.00;77.90;;;;;;10361882;28;20025;-55
2022/10/15 08:59:44;;;;;;;18.77;6.78;;;17.00;77.40;;;;;;10361978;28;20355;-58
2022/10/15 09:05:04;;;;;;;13.00;6.85;;;17.00;77.20;;;;;;10372872;28;20407;-54
2022/10/15 09:10:30;;;;;;;16.25;6.90;;;17.00;77.30;;;;;;10369359;28;20373;-56
2022/10/15 09:15:45;;;;;;;14.95;6.78;;;17.00;77.50;;;;;;10349754;28;20122;-57
2022/10/15 09:20:46;;;;;;;14.13;7.05;;;17.00;77.60;;;;;;10360063;28;20030;-57
2022/10/15 09:26:11;;;;;;;9.88;6.65;;;17.00;77.70;;;;;;10374041;28;20041;-58
2022/10/15 09:31:18;;;;;;;17.55;7.25;;;16.90;77.40;;;;;;10379508;28;20060;-58
2022/10/15 09:36:47;;;;;;;17.98;7.40;;;16.90;77.90;;;;;;10362703;28;20053;-58
2022/10/15 09:42:22;;;;;;;12.07;6.13;;;16.90;78.10;;;;;;10363250;28;20050;-55
2022/10/15 09:47:30;;;;;;;16.42;6.63;;;17.00;78.50;;;;;;10359846;28;20351;-55
2022/10/15 09:53:16;;;;;;;17.13;6.75;;;17.10;77.80;;;;;;10368408;28;20861;-57
2022/10/15 09:58:28;;;;;;;19.48;5.97;;;17.00;77.80;;;;;;10369398;28;20026;-59
2022/10/15 10:03:33;;;;;;;17.27;5.22;;;17.00;77.80;;;;;;10370453;28;20096;-60
2022/10/15 10:09:05;;;;;;;16.05;6.55;;;17.00;77.90;;;;;;10370399;28;20010;-57
2022/10/15 10:14:05;;;;;;;18.30;6.15;;;17.00;77.70;;;;;;10371727;28;20037;-59
2022/10/15 10:19:13;;;;;;;34.35;9.18;;;17.00;78.10;;;;;;10378642;28;20430;-58
2022/10/15 10:24:33;;;;;;;20.98;7.32;;;17.10;78.40;;;;;;10371116;28;20042;-58
2022/10/15 10:29:38;;;;;;;;;;;17.20;78.40;;;;;;10371745;28;20025;-56
2022/10/15 10:34:42;;;;;;;22.20;6.97;;;17.20;78.50;;;;;;10369513;28;19909;-57
2022/10/15 10:39:44;;;;;;;24.95;8.18;;;17.20;78.70;;;;;;10369776;28;20045;-55
2022/10/15 10:44:45;;;;;;;13.57;6.70;;;17.20;78.60;;;;;;10367431;28;20060;-57
2022/10/15 10:49:53;;;;;;;18.38;7.50;;;17.20;78.80;;;;;;10369747;28;20049;-56
2022/10/15 10:55:05;;;;;;;24.40;6.50;;;17.20;78.30;;;;;;10372549;28;20060;-56
2022/10/15 11:00:12;;;;;;;19.13;6.22;;;17.20;78.50;;;;;;10367829;28;20080;-57
2022/10/15 11:05:15;;;;;;;15.85;5.35;;;17.10;78.60;;;;;;10367764;28;20120;-55
2022/10/15 11:10:33;;;;;;;12.13;6.60;;;17.10;78.50;;;;;;10376972;28;20038;-56
2022/10/15 11:16:22;;;;;;;16.40;6.55;;;17.00;78.70;;;;;;10373388;28;20028;-57
2022/10/15 11:21:52;;;;;;;15.27;5.47;;;17.00;78.50;;;;;;10363602;28;20034;-56
2022/10/15 11:26:58;;;;;;;20.48;6.30;;;17.00;78.60;;;;;;10367307;28;20850;-57
2022/10/15 11:32:26;;;;;;;17.88;6.45;;;17.10;78.50;;;;;;10368199;28;20544;-59
2022/10/15 11:37:54;;;;;;;15.23;4.95;;;17.10;78.60;;;;;;10366463;28;20475;-57
2022/10/15 11:42:58;;;;;;;19.85;5.28;;;17.10;78.70;;;;;;10367512;28;20060;-54
2022/10/15 11:48:25;;;;;;;15.45;4.93;;;17.10;78.80;;;;;;10366534;28;20022;-54
2022/10/15 11:54:15;;;;;;;12.80;4.45;;;17.20;78.50;;;;;;10365947;28;20037;-56
2022/10/15 11:59:32;;;;;;;14.47;6.00;;;17.30;78.40;;;;;;10363613;28;20105;-56
2022/10/15 12:05:05;;;;;;;17.90;6.15;;;17.50;79.30;;;;;;10365709;28;20327;-56
2022/10/15 12:10:12;;;;;;;11.57;5.75;;;17.50;81.40;;;;;;10367592;28;20081;-57
2022/10/15 12:15:41;;;;;;;17.13;7.25;;;17.40;81.80;;;;;;10364722;28;20084;-57
2022/10/15 12:20:43;;;;;;;16.92;5.13;;;17.50;83.00;;;;;;10365938;28;20060;-56
2022/10/15 12:25:45;;;;;;;19.67;7.45;;;17.70;82.00;;;;;;10364561;28;20501;-60
2022/10/15 12:31:01;;;;;;;17.08;6.65;;;17.60;82.30;;;;;;10365133;28;20474;-58
2022/10/15 12:36:17;;;;;;;19.60;5.72;;;17.50;81.30;;;;;;10364920;28;20109;-56
2022/10/15 12:41:18;;;;;;;16.75;5.03;;;17.50;81.00;;;;;;10365041;28;20093;-57
2022/10/15 12:46:18;;;;;;;15.80;6.10;;;17.40;80.90;;;;;;10363766;28;20085;-57
2022/10/15 12:51:22;;;;;;;13.30;4.88;;;17.30;80.90;;;;;;10362030;28;20021;-56
2022/10/15 12:56:34;;;;;;;12.90;4.90;;;17.30;80.80;;;;;;10358322;28;20034;-56
2022/10/15 13:01:41;;;;;;;16.15;4.50;;;17.30;80.80;;;;;;10359815;28;20088;-57
2022/10/15 13:06:42;;;;;;;13.52;5.38;;;17.20;80.50;;;;;;10376626;28;20377;-57
2022/10/15 13:11:55;;;;;;;8.77;5.00;;;17.20;80.40;;;;;;10366203;28;20105;-57
2022/10/15 13:16:58;;;;;;;8.35;4.43;;;17.20;80.10;;;;;;10362543;28;20017;-57
2022/10/15 13:22:02;;;;;;;8.50;3.80;;;17.20;80.10;;;;;;10360787;28;20065;-56
2022/10/15 13:27:20;;;;;;;9.73;4.97;;;17.10;80.00;;;;;;10361117;28;20029;-57
2022/10/15 13:32:21;;;;;;;10.00;3.63;;;17.10;79.80;;;;;;10361819;28;20051;-57
2022/10/15 13:37:30;;;;;;;15.57;4.03;;;17.10;79.80;;;;;;10361961;28;20033;-57
2022/10/15 13:42:31;;;;;;;5.95;3.92;;;17.10;79.80;;;;;;10373621;28;20061;-57
2022/10/15 13:47:36;;;;;;;7.00;3.80;;;17.10;79.80;;;;;;10379290;28;20456;-57
2022/10/15 13:52:47;;;;;;;11.50;3.63;;;17.10;79.80;;;;;;10362242;28;20081;-57
2022/10/15 13:57:57;;;;;;;8.85;3.47;;;17.10;79.70;;;;;;10360110;28;20071;-57
2022/10/15 14:03:23;;;;;;;5.72;2.92;;;17.00;80.10;;;;;;10360103;28;20030;-57
2022/10/15 14:08:31;;;;;;;11.27;3.55;;;17.00;79.50;;;;;;10368841;28;20116;-57
2022/10/15 14:13:32;;;;;;;4.45;3.20;;;17.00;79.50;;;;;;10362318;28;20629;-57
2022/10/15 14:18:39;;;;;;;5.50;3.42;;;17.00;79.50;;;;;;10361137;28;20025;-55
2022/10/15 14:23:42;;;;;;;6.18;3.47;;;17.00;79.40;;;;;;10360052;28;20042;-56
2022/10/15 14:28:50;;;;;;;7.88;3.15;;;17.00;79.40;;;;;;10359086;28;20071;-57
2022/10/15 14:33:51;;;;;;;8.90;3.85;;;17.00;79.30;;;;;;10360845;28;20026;-56
2022/10/15 14:38:53;;;;;;;13.55;4.28;;;17.00;79.40;;;;;;10370599;28;20084;-56
2022/10/15 14:44:24;;;;;;;6.28;3.67;;;17.10;79.40;;;;;;10368007;28;20601;-57
2022/10/15 14:49:32;;;;;;;10.90;3.63;;;17.10;79.30;;;;;;10367571;28;20047;-58
2022/10/15 14:54:40;;;;;;;7.18;2.80;;;17.20;79.60;;;;;;10367239;28;20029;-57
2022/10/15 14:59:41;;;;;;;25.05;5.20;;;17.20;79.30;;;;;;10364867;28;20021;-55
2022/10/15 15:04:50;;;;;;;16.20;4.55;;;17.20;79.70;;;;;;10366489;28;20030;-59
2022/10/15 15:09:51;;;;;;;21.50;9.75;;;17.20;79.70;;;;;;10369064;28;20018;-58
2022/10/15 15:14:52;;;;;;;18.23;7.00;;;17.20;80.20;;;;;;10366729;28;20010;-59
2022/10/15 15:19:55;;;;;;;12.85;6.03;;;17.20;79.80;;;;;;10366998;28;20025;-58
2022/10/15 15:24:59;;;;;;;16.75;5.13;;;17.20;79.80;;;;;;10380542;28;20029;-58
2022/10/15 15:29:59;;;;;;;13.27;6.00;;;17.20;79.80;;;;;;10366985;28;20026;-59
2022/10/15 15:35:00;;;;;;;10.02;4.18;;;17.20;79.50;;;;;;10367899;28;20057;-57
2022/10/15 15:40:01;;;;;;;23.40;5.90;;;17.30;79.50;;;;;;10367379;28;20113;-57
2022/10/15 15:45:01;;;;;;;17.13;5.38;;;17.40;79.10;;;;;;10366511;28;20479;-57
2022/10/15 15:50:02;;;;;;;17.17;4.60;;;17.50;79.30;;;;;;10364986;28;20014;-58
2022/10/15 15:55:04;;;;;;;16.73;4.85;;;17.70;78.70;;;;;;10365642;28;20439;-57
2022/10/15 16:00:08;;;;;;;12.65;4.40;;;17.80;78.80;;;;;;10376115;28;20017;-56
2022/10/15 16:05:14;;;;;;;17.88;5.65;;;17.90;79.10;;;;;;10381134;28;20018;-57
2022/10/15 16:10:15;;;;;;;12.57;5.53;;;18.00;78.80;;;;;;10365189;28;20026;-57
2022/10/15 16:15:16;;;;;;;17.75;6.10;;;17.90;78.70;;;;;;10362778;28;20700;-59
2022/10/15 16:20:18;;;;;;;16.75;5.10;;;18.00;79.60;;;;;;10364936;28;20018;-57
2022/10/15 16:25:19;;;;;;;17.17;4.65;;;18.30;78.90;;;;;;10365838;28;20362;-58
2022/10/15 16:30:20;;;;;;;12.88;5.32;;;18.30;79.40;;;;;;10364031;28;20524;-58
2022/10/15 16:35:21;;;;;;;21.60;5.63;;;18.20;80.90;;;;;;10365641;28;20072;-58
2022/10/15 16:40:22;;;;;;;17.13;5.07;;;18.10;81.50;;;;;;10364346;28;20477;-57
2022/10/15 16:45:24;;;;;;;15.63;4.65;;;18.00;81.20;;;;;;10364888;28;20115;-57
2022/10/15 16:50:24;;;;;;;15.10;4.47;;;17.90;81.00;;;;;;10363474;28;20472;-56
2022/10/15 16:55:27;;;;;;;13.63;5.20;;;17.90;81.00;;;;;;10364115;28;20018;-58
2022/10/15 17:00:28;;;;;;;19.83;5.45;;;17.90;80.90;;;;;;10362737;28;20464;-58
2022/10/15 17:05:30;;;;;;;16.05;5.85;;;17.90;80.80;;;;;;10361394;28;20113;-57
2022/10/15 17:10:31;;;;;;;19.52;5.78;;;17.90;80.70;;;;;;10375957;28;20060;-58
2022/10/15 17:15:32;;;;;;;13.00;5.18;;;17.80;80.30;;;;;;10369898;28;20102;-60
2022/10/15 17:20:33;;;;;;;14.10;6.03;;;17.70;80.50;;;;;;10363269;28;20160;-60
2022/10/15 17:25:35;;;;;;;18.52;6.47;;;17.60;80.40;;;;;;10363186;28;20045;-60
2022/10/15 17:30:36;;;;;;;16.92;7.30;;;17.50;80.40;;;;;;10362386;28;20025;-60
2022/10/15 17:35:37;;;;;;;16.80;6.70;;;17.50;80.40;;;;;;10362485;28;20465;-59
2022/10/15 17:40:39;;;;;;;15.75;6.18;;;17.40;80.40;;;;;;10363601;28;20038;-61
2022/10/15 17:45:40;;;;;;;16.20;6.60;;;17.40;80.50;;;;;;10362889;28;20014;-58
2022/10/15 17:50:40;;;;;;;10.57;6.03;;;17.40;80.50;;;;;;10362492;28;20041;-59
2022/10/15 17:55:41;;;;;;;13.50;5.97;;;17.40;80.50;;;;;;10363151;28;20072;-57
2022/10/15 18:00:43;;;;;;;13.00;4.90;;;17.40;80.50;;;;;;10365246;28;20113;-58
2022/10/15 18:05:43;;;;;;;11.95;5.00;;;17.40;80.50;;;;;;10362039;28;20014;-60
2022/10/15 18:10:50;;;;;;;11.43;5.15;;;17.40;80.60;;;;;;10363582;28;20612;-59
2022/10/15 18:15:55;;;;;;;14.40;5.75;;;17.40;80.50;;;;;;10367965;28;20029;-59
2022/10/15 18:20:55;;;;;;;16.15;5.53;;;17.50;80.50;;;;;;10367656;28;20022;-58
2022/10/15 18:26:05;;;;;;;12.88;5.18;;;17.60;79.60;;;;;;10369258;28;20070;-58
2022/10/15 18:31:08;;;;;;;12.43;4.75;;;17.50;80.20;;;;;;10384578;28;20481;-58
2022/10/15 18:36:12;;;;;;;9.85;4.80;;;17.40;80.40;;;;;;10364605;28;20026;-58
2022/10/15 18:41:32;;;;;;;10.23;4.68;;;17.30;80.40;;;;;;10373951;28;20373;-57
2022/10/15 18:46:34;;;;;;;15.55;4.85;;;17.30;80.60;;;;;;10369961;28;20034;-58
2022/10/15 18:51:34;;;;;;;8.13;4.32;;;17.30;80.70;;;;;;10367800;28;20040;-58
2022/10/15 18:56:35;;;;;;;10.10;4.32;;;17.30;80.70;;;;;;10382195;28;20109;-58
2022/10/15 19:01:42;;;;;;;10.68;4.35;;;17.20;80.70;;;;;;10368024;28;20049;-59
2022/10/15 19:06:48;;;;;;;9.13;4.47;;;17.20;80.70;;;;;;10371010;28;20022;-57
2022/10/15 19:11:52;;;;;;;6.65;4.07;;;17.20;80.80;;;;;;10378862;28;20014;-58
2022/10/15 19:16:54;;;;;;;10.02;4.90;;;17.20;80.70;;;;;;10357500;28;20473;-58
2022/10/15 19:21:55;;;;;;;8.75;4.15;;;17.20;80.60;;;;;;10366878;28;20091;-59
2022/10/15 19:26:56;;;;;;;9.73;4.75;;;17.20;80.50;;;;;;10365536;28;20014;-58
2022/10/15 19:31:57;;;;;;;11.55;4.25;;;17.20;80.50;;;;;;10362528;28;20033;-58
2022/10/15 19:36:57;;;;;;;7.78;4.13;;;17.20;80.30;;;;;;10364916;28;20116;-58
2022/10/15 19:41:58;;;;;;;6.82;4.28;;;17.20;80.20;;;;;;10364280;28;20321;-58
2022/10/15 19:46:59;;;;;;;7.75;3.58;;;17.20;80.20;;;;;;10365642;28;20022;-58
2022/10/15 19:52:02;;;;;;;7.38;3.33;;;17.20;80.10;;;;;;10367482;28;20109;-57
2022/10/15 19:57:03;;;;;;;7.35;4.25;;;17.20;80.00;;;;;;10364869;28;20370;-58
2022/10/15 20:02:04;;;;;;;6.57;4.32;;;17.20;79.90;;;;;;10366059;28;20551;-59
2022/10/15 20:07:05;;;;;;;5.72;3.53;;;17.20;79.80;;;;;;10366523;28;20145;-56
2022/10/15 20:12:05;;;;;;;7.70;3.58;;;17.20;79.70;;;;;;10373994;28;20597;-58
2022/10/15 20:17:06;;;;;;;5.95;3.25;;;17.10;79.60;;;;;;10366237;28;20053;-58
2022/10/15 20:22:07;;;;;;;6.32;3.53;;;17.10;79.60;;;;;;10365757;28;20072;-57
2022/10/15 20:27:07;;;;;;;6.88;2.92;;;17.10;79.50;;;;;;10365224;28;20561;-58
2022/10/15 20:32:12;;;;;;;4.95;3.47;;;17.10;79.40;;;;;;10364882;28;20108;-58
2022/10/15 20:37:14;;;;;;;5.07;2.83;;;17.10;79.40;;;;;;10365164;28;20025;-57
2022/10/15 20:42:15;;;;;;;6.63;2.75;;;17.10;79.30;;;;;;10363806;28;20037;-59
2022/10/15 20:47:16;;;;;;;6.10;2.88;;;17.10;79.30;;;;;;10365149;28;20109;-56
2022/10/15 20:52:17;;;;;;;4.80;3.00;;;17.10;79.20;;;;;;10363679;28;20053;-58
2022/10/15 20:57:18;;;;;;;6.45;3.38;;;17.10;79.10;;;;;;10363268;28;20574;-59
2022/10/15 21:02:18;;;;;;;4.50;2.58;;;17.10;79.10;;;;;;10363066;28;20095;-58
2022/10/15 21:07:19;;;;;;;4.80;2.67;;;17.10;79.10;;;;;;10376541;28;20093;-58
2022/10/15 21:12:19;;;;;;;4.35;3.05;;;17.10;79.00;;;;;;10374019;28;20026;-59
2022/10/15 21:17:20;;;;;;;5.80;2.80;;;17.10;78.90;;;;;;10363461;28;20105;-58
2022/10/15 21:22:21;;;;;;;4.65;3.03;;;17.10;78.90;;;;;;10392039;28;20125;-58
2022/10/15 21:27:21;;;;;;;4.47;2.80;;;17.10;78.80;;;;;;10363928;28;20042;-58
2022/10/15 21:32:22;;;;;;;3.33;2.50;;;17.00;78.70;;;;;;10363577;28;20412;-59
2022/10/15 21:37:23;;;;;;;5.05;2.58;;;17.10;78.70;;;;;;10362084;28;20022;-58
2022/10/15 21:42:23;;;;;;;3.88;2.00;;;17.00;78.60;;;;;;10363274;28;20050;-59
2022/10/15 21:47:24;;;;;;;4.43;2.42;;;17.10;78.70;;;;;;10369713;28;20511;-58
2022/10/15 21:52:25;;;;;;;3.58;2.75;;;17.00;78.50;;;;;;10371809;28;20172;-59
2022/10/15 21:57:26;;;;;;;6.00;3.15;;;17.00;78.40;;;;;;10370598;28;20453;-58
2022/10/15 22:02:26;;;;;;;3.72;2.65;;;17.00;78.40;;;;;;10371451;28;20117;-59
2022/10/15 22:07:27;;;;;;;5.80;2.00;;;17.00;78.30;;;;;;10369548;28;20030;-58
2022/10/15 22:12:28;;;;;;;4.20;2.78;;;17.00;78.30;;;;;;10379355;28;20626;-58
2022/10/15 22:17:28;;;;;;;3.50;1.98;;;17.00;78.20;;;;;;10370474;28;20473;-58
2022/10/15 22:22:29;;;;;;;3.22;2.05;;;17.00;78.20;;;;;;10369231;28;20057;-58
2022/10/15 22:27:30;;;;;;;3.45;2.08;;;17.00;78.10;;;;;;10370625;28;20057;-58
2022/10/15 22:32:30;;;;;;;3.50;2.15;;;17.00;78.10;;;;;;10368941;28;20052;-58
2022/10/15 22:37:31;;;;;;;4.57;2.42;;;17.00;78.00;;;;;;10370234;28;20135;-58
2022/10/15 22:42:32;;;;;;;3.38;2.25;;;17.00;78.00;;;;;;10369365;28;20133;-58
2022/10/15 22:47:32;;;;;;;5.28;2.38;;;17.00;78.00;;;;;;10367870;28;20022;-58
2022/10/15 22:52:33;;;;;;;3.63;1.90;;;17.00;77.90;;;;;;10369054;28;20096;-58
2022/10/15 22:57:34;;;;;;;2.90;2.08;;;17.00;78.00;;;;;;10383787;28;20057;-59
2022/10/15 23:02:34;;;;;;;4.38;2.15;;;17.00;77.90;;;;;;10368638;28;20030;-58
2022/10/15 23:07:37;;;;;;;5.53;2.10;;;17.00;77.80;;;;;;10370247;28;20048;-57
2022/10/15 23:12:37;;;;;;;3.03;1.85;;;17.00;77.80;;;;;;10376980;28;20026;-58
2022/10/15 23:17:38;;;;;;;3.58;1.63;;;17.00;77.80;;;;;;10368265;28;20160;-58
2022/10/15 23:22:39;;;;;;;3.05;1.92;;;17.00;77.80;;;;;;10368767;28;20119;-59
2022/10/15 23:27:39;;;;;;;5.93;2.00;;;16.90;77.60;;;;;;10368403;28;20109;-56
2022/10/15 23:32:40;;;;;;;2.33;1.90;;;17.00;77.60;;;;;;10368234;28;20058;-58
2022/10/15 23:37:41;;;;;;;3.45;1.77;;;16.90;77.60;;;;;;10368062;28;20100;-58
2022/10/15 23:42:42;;;;;;;3.17;1.98;;;16.90;77.40;;;;;;10366040;28;20473;-58
2022/10/15 23:47:42;;;;;;;3.10;1.63;;;16.90;77.40;;;;;;10380580;28;20072;-58
2022/10/15 23:52:43;;;;;;;3.40;1.88;;;16.90;77.40;;;;;;10367176;28;20057;-59
2022/10/15 23:57:43;;;;;;;2.63;1.90;;;16.90;77.40;;;;;;10366414;28;20097;-59
